sensor_id;sensor_type;location;lat;lon;timestamp;pressure;altitude;pressure_sealevel;temperature;humidity
73821;BME280;62150;43.582;1.456;2022-12-01T06:41:22;100400.00;;;4.40;100.00
73821;BME280;62150;43.582;1.456;2022-12-01T06:43:50;100415.38;;;4.28;100.00
73821;BME280;62150;43.582;1.456;2022-12-01T06:46:18;100416.28;;;4.21;100.00
73821;BME280;62150;43.582;1.456;2022-12-01T06:48:47;100419.69;;;4.17;100.00
73821;BME280;62150;43.582;1.456;2022-12-01T06:51:15;100421.34;;;4.24;100.00
73821;BME280;62150;43.582;1.456;2022-12-01T06:53:42;100411.97;;;4.29;100.00
73821;BME280;62150;43.582;1.456;2022-12-01T06:56:10;100414.50;;;4.30;100.00
73821;BME280;62150;43.582;1.456;2022-12-01T06:58:39;100416.19;;;4.30;100.00
73821;BME280;62150;43.582;1.456;2022-12-01T07:01:10;100419.66;;;4.20;100.00
73821;BME280;62150;43.582;1.456;2022-12-01T07:03:38;100414.56;;;4.23;100.00
73821;BME280;62150;43.582;1.456;2022-12-01T07:06:06;100410.41;;;4.16;100.00
73821;BME280;62150;43.582;1.456;2022-12-01T07:08:33;100410.47;;;4.10;100.00
73821;BME280;62150;43.582;1.456;2022-12-01T07:11:02;100406.97;;;4.20;100.00
73821;BME280;62150;43.582;1.456;2022-12-01T07:13:30;100410.44;;;4.14;100.00
73821;BME280;62150;43.582;1.456;2022-12-01T07:15:59;100416.50;;;3.93;100.00
73821;BME280;62150;43.582;1.456;2022-12-01T07:18:27;100420.47;;;4.26;100.00
73821;BME280;62150;43.582;1.456;2022-12-01T07:20:58;100421.34;;;4.24;100.00
73821;BME280;62150;43.582;1.456;2022-12-01T07:23:27;100417.09;;;4.24;100.00
73821;BME280;62150;43.582;1.456;2022-12-01T07:25:58;100422.44;;;3.92;100.00
73821;BME280;62150;43.582;1.456;2022-12-01T07:28:26;100428.38;;;3.94;100.00
73821;BME280;62150;43.582;1.456;2022-12-01T07:31:03;100438.47;;;4.03;100.00
73821;BME280;62150;43.582;1.456;2022-12-01T07:33:31;100427.44;;;4.08;100.00
73821;BME280;62150;43.582;1.456;2022-12-01T07:35:59;100430.88;;;3.99;100.00
73821;BME280;62150;43.582;1.456;2022-12-01T07:38:27;100428.31;;;4.00;100.00
73821;BME280;62150;43.582;1.456;2022-12-01T07:40:59;100435.75;;;4.23;100.00
73821;BME280;62150;43.582;1.456;2022-12-01T07:43:28;100430.00;;;4.03;100.00
73821;BME280;62150;43.582;1.456;2022-12-01T07:45:56;100429.34;;;3.78;100.00
73821;BME280;62150;43.582;1.456;2022-12-01T07:48:24;100436.78;;;4.02;100.00
73821;BME280;62150;43.582;1.456;2022-12-01T07:50:55;100435.94;;;4.02;100.00
73821;BME280;62150;43.582;1.456;2022-12-01T07:53:23;100436.88;;;3.87;100.00
73821;BME280;62150;43.582;1.456;2022-12-01T07:55:50;100444.44;;;3.98;100.00
73821;BME280;62150;43.582;1.456;2022-12-01T07:58:18;100445.09;;;4.20;100.00
73821;BME280;62150;43.582;1.456;2022-12-01T08:00:46;100447.84;;;3.95;100.00
73821;BME280;62150;43.582;1.456;2022-12-01T08:03:13;100463.16;;;3.82;100.00
73821;BME280;62150;43.582;1.456;2022-12-01T08:05:42;100456.38;;;3.84;100.00
73821;BME280;62150;43.582;1.456;2022-12-01T08:08:10;100470.00;;;3.77;100.00
73821;BME280;62150;43.582;1.456;2022-12-01T08:10:37;100464.06;;;3.78;100.00
73821;BME280;62150;43.582;1.456;2022-12-01T08:13:05;100465.66;;;3.92;100.00
73821;BME280;62150;43.582;1.456;2022-12-01T08:15:32;100476.78;;;3.75;100.00
73821;BME280;62150;43.582;1.456;2022-12-01T08:18:01;100481.00;;;3.80;100.00
73821;BME280;62150;43.582;1.456;2022-12-01T08:20:28;100482.75;;;3.66;100.00
73821;BME280;62150;43.582;1.456;2022-12-01T08:22:59;100480.28;;;3.55;100.00
73821;BME280;62150;43.582;1.456;2022-12-01T08:25:27;100493.78;;;3.66;100.00
73821;BME280;62150;43.582;1.456;2022-12-01T08:27:55;100490.34;;;3.75;100.00
73821;BME280;62150;43.582;1.456;2022-12-01T08:30:23;100491.22;;;3.68;100.00
73821;BME280;62150;43.582;1.456;2022-12-01T08:32:53;100483.69;;;3.51;100.00
73821;BME280;62150;43.582;1.456;2022-12-01T08:35:20;100489.41;;;3.85;100.00
73821;BME280;62150;43.582;1.456;2022-12-01T08:37:51;100479.41;;;3.61;100.00
73821;BME280;62150;43.582;1.456;2022-12-01T08:40:20;100484.47;;;3.62;100.00
73821;BME280;62150;43.582;1.456;2022-12-01T08:42:48;100485.31;;;3.66;100.00
73821;BME280;62150;43.582;1.456;2022-12-01T08:45:18;100481.78;;;3.87;100.00
73821;BME280;62150;43.582;1.456;2022-12-01T08:47:46;100484.50;;;3.55;100.00
73821;BME280;62150;43.582;1.456;2022-12-01T08:50:13;100484.44;;;3.70;100.00
73821;BME280;62150;43.582;1.456;2022-12-01T08:52:41;100485.28;;;3.72;100.00
73821;BME280;62150;43.582;1.456;2022-12-01T08:55:09;100484.44;;;3.70;100.00
73821;BME280;62150;43.582;1.456;2022-12-01T08:57:38;100486.19;;;3.57;100.00
73821;BME280;62150;43.582;1.456;2022-12-01T09:00:07;100487.84;;;3.63;100.00
73821;BME280;62150;43.582;1.456;2022-12-01T09:02:35;100486.16;;;3.62;100.00
73821;BME280;62150;43.582;1.456;2022-12-01T09:05:03;100484.28;;;3.91;100.00
73821;BME280;62150;43.582;1.456;2022-12-01T09:07:31;100484.28;;;3.94;100.00
73821;BME280;62150;43.582;1.456;2022-12-01T09:09:59;100484.22;;;4.07;100.00
73821;BME280;62150;43.582;1.456;2022-12-01T09:12:28;100486.16;;;3.63;100.00
73821;BME280;62150;43.582;1.456;2022-12-01T09:14:57;100481.88;;;3.76;100.00
73821;BME280;62150;43.582;1.456;2022-12-01T09:17:25;100483.50;;;3.85;100.00
73821;BME280;62150;43.582;1.456;2022-12-01T09:19:54;100485.94;;;4.00;100.00
73821;BME280;62150;43.582;1.456;2022-12-01T09:22:22;100493.75;;;3.69;100.00
73821;BME280;62150;43.582;1.456;2022-12-01T09:24:50;100490.41;;;3.58;100.00
73821;BME280;62150;43.582;1.456;2022-12-01T09:27:18;100492.91;;;3.72;100.00
73821;BME280;62150;43.582;1.456;2022-12-01T09:29:45;100503.91;;;3.69;100.00
73821;BME280;62150;43.582;1.456;2022-12-01T09:32:14;100496.19;;;3.85;100.00
73821;BME280;62150;43.582;1.456;2022-12-01T09:34:42;100496.91;;;4.07;100.00
73821;BME280;62150;43.582;1.456;2022-12-01T09:37:10;100502.94;;;3.92;100.00
73821;BME280;62150;43.582;1.456;2022-12-01T09:39:37;100496.94;;;4.05;100.00
73821;BME280;62150;43.582;1.456;2022-12-01T09:42:10;100504.63;;;3.94;100.00
73821;BME280;62150;43.582;1.456;2022-12-01T09:44:41;100495.19;;;4.15;100.00
73821;BME280;62150;43.582;1.456;2022-12-01T09:47:17;100496.81;;;4.19;100.00
73821;BME280;62150;43.582;1.456;2022-12-01T09:49:54;100504.53;;;4.10;100.00
73821;BME280;62150;43.582;1.456;2022-12-01T09:52:24;100501.34;;;3.80;100.00
73821;BME280;62150;43.582;1.456;2022-12-01T09:54:54;100506.28;;;4.01;100.00
73821;BME280;62150;43.582;1.456;2022-12-01T09:57:30;100498.50;;;4.18;100.00
73821;BME280;62150;43.582;1.456;2022-12-01T10:00:00;100507.78;;;4.24;100.00
73821;BME280;62150;43.582;1.456;2022-12-01T10:02:34;100502.72;;;4.21;100.00
73821;BME280;62150;43.582;1.456;2022-12-01T10:05:04;100508.06;;;3.84;100.00
73821;BME280;62150;43.582;1.456;2022-12-01T10:07:37;100505.44;;;3.96;100.00
73821;BME280;62150;43.582;1.456;2022-12-01T10:10:10;100498.44;;;4.30;100.00
73821;BME280;62150;43.582;1.456;2022-12-01T10:12:42;100497.53;;;4.39;100.00
73821;BME280;62150;43.582;1.456;2022-12-01T10:15:27;100496.50;;;4.58;100.00
73821;BME280;62150;43.582;1.456;2022-12-01T10:18:06;100494.00;;;4.52;100.00
73821;BME280;62150;43.582;1.456;2022-12-01T10:20:47;100493.91;;;4.61;100.00
73821;BME280;62150;43.582;1.456;2022-12-01T10:23:29;100498.94;;;4.70;100.00
73821;BME280;62150;43.582;1.456;2022-12-01T10:26:06;100492.25;;;4.57;100.00
73821;BME280;62150;43.582;1.456;2022-12-01T10:29:07;100492.22;;;4.62;100.00
73821;BME280;62150;43.582;1.456;2022-12-01T10:31:45;100492.25;;;4.57;100.00
73821;BME280;62150;43.582;1.456;2022-12-01T10:34:19;100483.72;;;4.63;100.00
73821;BME280;62150;43.582;1.456;2022-12-01T10:36:47;100489.63;;;4.66;100.00
73821;BME280;62150;43.582;1.456;2022-12-01T10:39:18;100483.75;;;4.60;100.00
73821;BME280;62150;43.582;1.456;2022-12-01T10:41:47;100472.50;;;4.84;100.00
73821;BME280;62150;43.582;1.456;2022-12-01T10:44:17;100477.63;;;4.82;100.00
73821;BME280;62150;43.582;1.456;2022-12-01T10:46:47;100466.44;;;4.94;100.00
73821;BME280;62150;43.582;1.456;2022-12-01T10:49:18;100464.28;;;4.54;100.00
73821;BME280;62150;43.582;1.456;2022-12-01T10:51:52;100469.13;;;4.83;100.00
73821;BME280;62150;43.582;1.456;2022-12-01T10:54:20;100466.56;;;4.83;100.00
73821;BME280;62150;43.582;1.456;2022-12-01T10:56:51;100459.09;;;4.68;100.00
73821;BME280;62150;43.582;1.456;2022-12-01T10:59:25;100459.97;;;4.65;100.00
73821;BME280;62150;43.582;1.456;2022-12-01T11:01:53;100453.84;;;4.83;100.00
73821;BME280;62150;43.582;1.456;2022-12-01T11:04:34;100451.22;;;4.88;100.00
73821;BME280;62150;43.582;1.456;2022-12-01T11:07:03;100449.34;;;5.05;100.00
73821;BME280;62150;43.582;1.456;2022-12-01T11:09:31;100446.03;;;4.97;100.00
73821;BME280;62150;43.582;1.456;2022-12-01T11:12:00;100448.88;;;4.72;100.00
73821;BME280;62150;43.582;1.456;2022-12-01T11:14:35;100450.38;;;4.89;100.00
73821;BME280;62150;43.582;1.456;2022-12-01T11:17:27;100443.72;;;5.48;100.00
73821;BME280;62150;43.582;1.456;2022-12-01T11:19:57;100433.00;;;5.23;100.00
73821;BME280;62150;43.582;1.456;2022-12-01T11:22:29;100432.25;;;5.78;100.00
73821;BME280;62150;43.582;1.456;2022-12-01T11:24:59;100434.91;;;5.70;100.00
73821;BME280;62150;43.582;1.456;2022-12-01T11:27:31;100434.34;;;5.51;100.00
73821;BME280;62150;43.582;1.456;2022-12-01T11:30:04;100426.97;;;5.90;100.00
73821;BME280;62150;43.582;1.456;2022-12-01T11:32:36;100427.88;;;5.86;100.00
73821;BME280;62150;43.582;1.456;2022-12-01T11:35:15;100433.69;;;5.97;100.00
73821;BME280;62150;43.582;1.456;2022-12-01T11:37:47;100424.75;;;5.67;100.00
73821;BME280;62150;43.582;1.456;2022-12-01T11:40:19;100430.31;;;5.93;100.00
73821;BME280;62150;43.582;1.456;2022-12-01T11:42:50;100426.97;;;5.90;100.00
73821;BME280;62150;43.582;1.456;2022-12-01T11:45:26;100426.28;;;5.79;100.00
73821;BME280;62150;43.582;1.456;2022-12-01T11:48:00;100430.97;;;6.08;100.00
73821;BME280;62150;43.582;1.456;2022-12-01T11:50:32;100427.25;;;5.71;100.00
73821;BME280;62150;43.582;1.456;2022-12-01T11:53:00;100428.31;;;6.14;100.00
73821;BME280;62150;43.582;1.456;2022-12-01T11:55:29;100431.84;;;6.05;100.00
73821;BME280;62150;43.582;1.456;2022-12-01T11:57:59;100425.66;;;6.21;100.00
73821;BME280;62150;43.582;1.456;2022-12-01T12:00:29;100422.63;;;5.96;100.00
73821;BME280;62150;43.582;1.456;2022-12-01T12:03:12;100417.31;;;6.10;100.00
73821;BME280;62150;43.582;1.456;2022-12-01T12:05:58;100416.09;;;6.31;100.00
73821;BME280;62150;43.582;1.456;2022-12-01T12:08:42;100415.13;;;6.38;100.00
73821;BME280;62150;43.582;1.456;2022-12-01T12:11:17;100408.25;;;6.43;100.00
73821;BME280;62150;43.582;1.456;2022-12-01T12:17:10;100411.03;;;6.29;100.00
73821;BME280;62150;43.582;1.456;2022-12-01T12:19:51;100416.25;;;6.69;100.00
73821;BME280;62150;43.582;1.456;2022-12-01T12:22:27;100407.91;;;6.14;100.00
73821;BME280;62150;43.582;1.456;2022-12-01T12:25:06;100404.41;;;6.65;100.00
73821;BME280;62150;43.582;1.456;2022-12-01T12:27:46;100404.19;;;6.31;100.00
73821;BME280;62150;43.582;1.456;2022-12-01T12:30:20;100402.22;;;6.47;100.00
73821;BME280;62150;43.582;1.456;2022-12-01T12:36:07;100406.56;;;6.42;100.00
73821;BME280;62150;43.582;1.456;2022-12-01T12:38:48;100404.66;;;6.53;100.00
73821;BME280;62150;43.582;1.456;2022-12-01T12:41:29;100394.25;;;6.62;100.00
73821;BME280;62150;43.582;1.456;2022-12-01T12:44:20;100391.50;;;6.75;100.00
73821;BME280;62150;43.582;1.456;2022-12-01T12:46:58;100389.91;;;6.23;100.00
73821;BME280;62150;43.582;1.456;2022-12-01T12:49:36;100385.72;;;6.65;100.00
73821;BME280;62150;43.582;1.456;2022-12-01T12:52:10;100385.00;;;6.58;100.00
73821;BME280;62150;43.582;1.456;2022-12-01T12:54:46;100388.88;;;6.78;100.00
73821;BME280;62150;43.582;1.456;2022-12-01T12:57:22;100393.94;;;6.81;100.00
73821;BME280;62150;43.582;1.456;2022-12-01T12:59:55;100400.13;;;6.67;100.00
73821;BME280;62150;43.582;1.456;2022-12-01T13:02:28;100398.41;;;6.68;100.00
73821;BME280;62150;43.582;1.456;2022-12-01T13:05:04;100389.34;;;6.53;100.00
73821;BME280;62150;43.582;1.456;2022-12-01T13:07:39;100386.63;;;6.61;100.00
73821;BME280;62150;43.582;1.456;2022-12-01T13:10:18;100386.97;;;6.44;100.00
73821;BME280;62150;43.582;1.456;2022-12-01T13:12:55;100380.03;;;6.51;100.00
73821;BME280;62150;43.582;1.456;2022-12-01T13:15:24;100381.44;;;6.65;100.00
73821;BME280;62150;43.582;1.456;2022-12-01T13:17:56;100380.34;;;6.79;100.00
73821;BME280;62150;43.582;1.456;2022-12-01T13:20:27;100372.84;;;6.71;100.00
73821;BME280;62150;43.582;1.456;2022-12-01T13:22:57;100380.66;;;6.62;100.00
73821;BME280;62150;43.582;1.456;2022-12-01T13:25:29;100378.31;;;6.53;100.00
73821;BME280;62150;43.582;1.456;2022-12-01T13:28:00;100376.53;;;6.56;100.00
73821;BME280;62150;43.582;1.456;2022-12-01T13:30:29;100370.66;;;6.53;100.00
73821;BME280;62150;43.582;1.456;2022-12-01T13:32:59;100365.53;;;6.53;100.00
73821;BME280;62150;43.582;1.456;2022-12-01T13:35:30;100367.06;;;6.61;100.00
73821;BME280;62150;43.582;1.456;2022-12-01T13:38:20;100366.19;;;6.62;100.00
73821;BME280;62150;43.582;1.456;2022-12-01T13:43:58;100365.47;;;6.57;100.00
73821;BME280;62150;43.582;1.456;2022-12-01T13:46:28;100363.94;;;6.90;100.00
73821;BME280;62150;43.582;1.456;2022-12-01T13:48:57;100365.47;;;6.57;100.00
73821;BME280;62150;43.582;1.456;2022-12-01T13:51:26;100366.66;;;6.83;100.00
73821;BME280;62150;43.582;1.456;2022-12-01T13:54:02;100360.69;;;6.82;100.00
73821;BME280;62150;43.582;1.456;2022-12-01T13:56:58;100365.28;;;6.65;100.00
73821;BME280;62150;43.582;1.456;2022-12-01T14:00:03;100360.78;;;6.78;100.00
73821;BME280;62150;43.582;1.456;2022-12-01T14:02:33;100362.09;;;6.55;100.00
73821;BME280;62150;43.582;1.456;2022-12-01T14:05:43;100370.69;;;6.50;100.00
73821;BME280;62150;43.582;1.456;2022-12-01T14:08:18;100363.03;;;6.50;100.00
73821;BME280;62150;43.582;1.456;2022-12-01T14:10:53;100361.94;;;6.61;100.00
73821;BME280;62150;43.582;1.456;2022-12-01T14:13:23;100364.75;;;6.49;100.00
73821;BME280;62150;43.582;1.456;2022-12-01T14:15:54;100363.31;;;6.79;100.00
73821;BME280;62150;43.582;1.456;2022-12-01T14:18:31;100361.28;;;6.53;100.00
73821;BME280;62150;43.582;1.456;2022-12-01T14:21:00;100363.69;;;6.59;100.00
73821;BME280;62150;43.582;1.456;2022-12-01T14:23:30;100369.81;;;6.52;100.00
73821;BME280;62150;43.582;1.456;2022-12-01T14:26:10;100357.63;;;6.22;100.00
73821;BME280;62150;43.582;1.456;2022-12-01T14:32:26;100357.94;;;6.50;100.00
73821;BME280;62150;43.582;1.456;2022-12-01T14:34:58;100364.69;;;6.52;100.00
73821;BME280;62150;43.582;1.456;2022-12-01T14:37:36;100357.84;;;6.54;100.00
73821;BME280;62150;43.582;1.456;2022-12-01T14:40:12;100356.34;;;6.44;100.00
73821;BME280;62150;43.582;1.456;2022-12-01T14:42:44;100365.03;;;6.34;100.00
73821;BME280;62150;43.582;1.456;2022-12-01T14:45:34;100364.22;;;6.32;100.00
73821;BME280;62150;43.582;1.456;2022-12-01T14:48:11;100363.19;;;5.93;100.00
73821;BME280;62150;43.582;1.456;2022-12-01T14:50:43;100372.66;;;5.85;100.00
73821;BME280;62150;43.582;1.456;2022-12-01T14:53:19;100378.06;;;6.19;100.00
73821;BME280;62150;43.582;1.456;2022-12-01T14:55:52;100378.16;;;6.13;100.00
73821;BME280;62150;43.582;1.456;2022-12-01T14:58:25;100372.38;;;6.03;100.00
73821;BME280;62150;43.582;1.456;2022-12-01T15:01:03;100375.81;;;6.00;100.00
73821;BME280;62150;43.582;1.456;2022-12-01T15:03:39;100375.72;;;6.07;100.00
73821;BME280;62150;43.582;1.456;2022-12-01T15:06:16;100379.09;;;6.09;100.00
73821;BME280;62150;43.582;1.456;2022-12-01T15:08:44;100374.88;;;6.06;100.00
73821;BME280;62150;43.582;1.456;2022-12-01T15:11:20;100373.88;;;6.15;100.00
73821;BME280;62150;43.582;1.456;2022-12-01T15:13:49;100372.81;;;6.26;100.00
73821;BME280;62150;43.582;1.456;2022-12-01T15:16:19;100379.63;;;6.26;100.00
73821;BME280;62150;43.582;1.456;2022-12-01T15:18:50;100369.75;;;6.08;100.00
73821;BME280;62150;43.582;1.456;2022-12-01T15:21:19;100373.38;;;6.44;100.00
73821;BME280;62150;43.582;1.456;2022-12-01T15:23:54;100371.78;;;6.36;100.00
73821;BME280;62150;43.582;1.456;2022-12-01T15:26:23;100371.56;;;6.49;100.00
73821;BME280;62150;43.582;1.456;2022-12-01T15:29:04;100369.94;;;5.95;100.00
73821;BME280;62150;43.582;1.456;2022-12-01T15:31:33;100371.31;;;6.16;100.00
73821;BME280;62150;43.582;1.456;2022-12-01T15:34:02;100375.59;;;6.14;100.00
73821;BME280;62150;43.582;1.456;2022-12-01T15:36:31;100376.84;;;6.39;100.00
73821;BME280;62150;43.582;1.456;2022-12-01T15:38:59;100371.53;;;6.50;100.00
73821;BME280;62150;43.582;1.456;2022-12-01T15:41:26;100372.16;;;6.17;100.00
73821;BME280;62150;43.582;1.456;2022-12-01T15:43:55;100370.28;;;6.25;100.00
73821;BME280;62150;43.582;1.456;2022-12-01T15:46:29;100374.50;;;6.27;100.00
73821;BME280;62150;43.582;1.456;2022-12-01T15:49:14;100368.41;;;6.36;100.00
73821;BME280;62150;43.582;1.456;2022-12-01T15:51:43;100371.31;;;6.16;100.00
73821;BME280;62150;43.582;1.456;2022-12-01T15:54:19;100374.47;;;6.29;100.00
73821;BME280;62150;43.582;1.456;2022-12-01T15:56:52;100377.53;;;6.00;100.00
73821;BME280;62150;43.582;1.456;2022-12-01T15:59:32;100377.78;;;5.83;100.00
73821;BME280;62150;43.582;1.456;2022-12-01T16:02:12;100376.81;;;5.92;100.00
73821;BME280;62150;43.582;1.456;2022-12-01T16:04:45;100382.00;;;5.84;100.00
73821;BME280;62150;43.582;1.456;2022-12-01T16:07:14;100381.16;;;5.85;100.00
73821;BME280;62150;43.582;1.456;2022-12-01T16:09:53;100382.06;;;5.81;100.00
73821;BME280;62150;43.582;1.456;2022-12-01T16:12:23;100375.09;;;5.92;100.00
73821;BME280;62150;43.582;1.456;2022-12-01T16:14:54;100374.09;;;6.01;100.00
73821;BME280;62150;43.582;1.456;2022-12-01T16:17:23;100380.00;;;6.04;100.00
73821;BME280;62150;43.582;1.456;2022-12-01T16:20:18;100373.56;;;5.82;100.00
73821;BME280;62150;43.582;1.456;2022-12-01T16:22:50;100379.31;;;5.95;100.00
73821;BME280;62150;43.582;1.456;2022-12-01T16:25:26;100373.38;;;5.94;100.00
73821;BME280;62150;43.582;1.456;2022-12-01T16:27:55;100380.16;;;5.95;100.00
73821;BME280;62150;43.582;1.456;2022-12-01T16:30:25;100380.84;;;6.05;100.00
73821;BME280;62150;43.582;1.456;2022-12-01T16:33:01;100384.38;;;5.96;100.00
73821;BME280;62150;43.582;1.456;2022-12-01T16:35:33;100377.44;;;6.06;100.00
73821;BME280;62150;43.582;1.456;2022-12-01T16:38:09;100376.88;;;5.87;100.00
73821;BME280;62150;43.582;1.456;2022-12-01T16:40:40;100380.16;;;5.95;100.00
73821;BME280;62150;43.582;1.456;2022-12-01T16:43:13;100378.47;;;5.94;100.00
73821;BME280;62150;43.582;1.456;2022-12-01T16:45:41;100385.28;;;5.94;100.00
73821;BME280;62150;43.582;1.456;2022-12-01T16:48:09;100380.22;;;5.91;100.00
73821;BME280;62150;43.582;1.456;2022-12-01T16:50:38;100389.66;;;5.84;100.00
73821;BME280;62150;43.582;1.456;2022-12-01T16:53:07;100388.91;;;5.78;100.00
73821;BME280;62150;43.582;1.456;2022-12-01T16:55:41;100389.69;;;5.83;100.00
73821;BME280;62150;43.582;1.456;2022-12-01T16:58:10;100390.50;;;5.86;100.00
73821;BME280;62150;43.582;1.456;2022-12-01T17:00:38;100384.53;;;5.87;100.00
73821;BME280;62150;43.582;1.456;2022-12-01T17:03:06;100384.53;;;5.87;100.00
73821;BME280;62150;43.582;1.456;2022-12-01T17:05:34;100383.78;;;5.79;100.00
73821;BME280;62150;43.582;1.456;2022-12-01T17:08:05;100389.84;;;5.72;100.00
73821;BME280;62150;43.582;1.456;2022-12-01T17:10:33;100392.16;;;5.87;100.00
73821;BME280;62150;43.582;1.456;2022-12-01T17:13:01;100394.84;;;5.80;100.00
73821;BME280;62150;43.582;1.456;2022-12-01T17:15:29;100389.91;;;5.67;100.00
73821;BME280;62150;43.582;1.456;2022-12-01T17:17:57;100397.50;;;5.72;100.00
73821;BME280;62150;43.582;1.456;2022-12-01T17:20:27;100388.91;;;5.78;100.00
73821;BME280;62150;43.582;1.456;2022-12-01T17:22:55;100388.88;;;5.79;100.00
73821;BME280;62150;43.582;1.456;2022-12-01T17:25:24;100397.34;;;5.81;100.00
73821;BME280;62150;43.582;1.456;2022-12-01T17:27:52;100397.34;;;5.83;100.00
73821;BME280;62150;43.582;1.456;2022-12-01T17:30:20;100405.81;;;5.83;100.00
73821;BME280;62150;43.582;1.456;2022-12-01T17:32:48;100398.19;;;5.82;100.00
73821;BME280;62150;43.582;1.456;2022-12-01T17:35:16;100399.13;;;5.76;100.00
73821;BME280;62150;43.582;1.456;2022-12-01T17:37:44;100413.41;;;5.88;100.00
73821;BME280;62150;43.582;1.456;2022-12-01T17:40:12;100403.16;;;5.91;100.00
73821;BME280;62150;43.582;1.456;2022-12-01T17:42:42;100411.88;;;5.76;100.00
73821;BME280;62150;43.582;1.456;2022-12-01T17:45:10;100410.06;;;5.84;100.00
73821;BME280;62150;43.582;1.456;2022-12-01T17:47:38;100406.56;;;5.91;100.00
73821;BME280;62150;43.582;1.456;2022-12-01T17:50:06;100409.19;;;5.85;100.00
73821;BME280;62150;43.582;1.456;2022-12-01T17:52:34;100412.78;;;5.72;100.00
73821;BME280;62150;43.582;1.456;2022-12-01T17:55:02;100412.69;;;5.78;100.00
73821;BME280;62150;43.582;1.456;2022-12-01T17:57:30;100415.91;;;5.91;100.00
73821;BME280;62150;43.582;1.456;2022-12-01T18:00:00;100412.41;;;5.98;100.00
73821;BME280;62150;43.582;1.456;2022-12-01T18:02:28;100421.03;;;5.89;100.00
73821;BME280;62150;43.582;1.456;2022-12-01T18:04:56;100422.75;;;5.87;100.00
73821;BME280;62150;43.582;1.456;2022-12-01T18:07:24;100425.25;;;5.92;100.00
73821;BME280;62150;43.582;1.456;2022-12-01T18:09:51;100419.53;;;5.76;100.00
73821;BME280;62150;43.582;1.456;2022-12-01T18:12:19;100426.41;;;5.71;100.00
73821;BME280;62150;43.582;1.456;2022-12-01T18:14:47;100422.00;;;5.81;100.00
73821;BME280;62150;43.582;1.456;2022-12-01T18:17:16;100424.69;;;5.71;100.00
73821;BME280;62150;43.582;1.456;2022-12-01T18:19:44;100422.88;;;5.80;100.00
73821;BME280;62150;43.582;1.456;2022-12-01T18:22:11;100424.75;;;5.67;100.00
73821;BME280;62150;43.582;1.456;2022-12-01T18:24:39;100418.69;;;5.76;100.00
73821;BME280;62150;43.582;1.456;2022-12-01T18:27:07;100424.63;;;5.76;100.00
73821;BME280;62150;43.582;1.456;2022-12-01T18:29:34;100415.19;;;5.83;100.00
73821;BME280;62150;43.582;1.456;2022-12-01T18:32:02;100419.53;;;5.76;100.00
73821;BME280;62150;43.582;1.456;2022-12-01T18:34:31;100425.50;;;5.75;100.00
73821;BME280;62150;43.582;1.456;2022-12-01T18:37:00;100426.41;;;5.71;100.00
73821;BME280;62150;43.582;1.456;2022-12-01T18:39:28;100422.19;;;5.67;100.00
73821;BME280;62150;43.582;1.456;2022-12-01T18:41:56;100421.34;;;5.68;100.00
73821;BME280;62150;43.582;1.456;2022-12-01T18:44:24;100418.00;;;5.64;100.00
73821;BME280;62150;43.582;1.456;2022-12-01T18:46:51;100425.50;;;5.75;100.00
73821;BME280;62150;43.582;1.456;2022-12-01T18:49:19;100428.13;;;5.69;100.00
73821;BME280;62150;43.582;1.456;2022-12-01T18:51:48;100432.34;;;5.70;100.00
73821;BME280;62150;43.582;1.456;2022-12-01T18:54:16;100423.72;;;5.80;100.00
73821;BME280;62150;43.582;1.456;2022-12-01T18:56:43;100423.66;;;5.85;100.00
73821;BME280;62150;43.582;1.456;2022-12-01T18:59:11;100430.53;;;5.80;100.00
73821;BME280;62150;43.582;1.456;2022-12-01T19:01:42;100418.56;;;5.85;100.00
73821;BME280;62150;43.582;1.456;2022-12-01T19:04:10;100418.25;;;6.04;100.00
73821;BME280;62150;43.582;1.456;2022-12-01T19:06:40;100422.69;;;5.92;100.00
73821;BME280;62150;43.582;1.456;2022-12-01T19:09:11;100418.41;;;5.95;100.00
73821;BME280;62150;43.582;1.456;2022-12-01T19:11:39;100419.91;;;6.07;100.00
73821;BME280;62150;43.582;1.456;2022-12-01T19:14:08;100414.78;;;6.09;100.00
73821;BME280;62150;43.582;1.456;2022-12-01T19:16:39;100415.97;;;5.86;100.00
73821;BME280;62150;43.582;1.456;2022-12-01T19:19:06;100416.63;;;6.00;100.00
73821;BME280;62150;43.582;1.456;2022-12-01T19:21:35;100414.81;;;6.07;100.00
73821;BME280;62150;43.582;1.456;2022-12-01T19:24:03;100418.31;;;6.00;100.00
73821;BME280;62150;43.582;1.456;2022-12-01T19:26:32;100415.84;;;5.95;100.00
73821;BME280;62150;43.582;1.456;2022-12-01T19:28:59;100417.69;;;5.89;100.00
73821;BME280;62150;43.582;1.456;2022-12-01T19:31:27;100419.22;;;5.97;100.00
73821;BME280;62150;43.582;1.456;2022-12-01T19:33:54;100430.22;;;6.01;100.00
73821;BME280;62150;43.582;1.456;2022-12-01T19:36:25;100424.13;;;6.10;100.00
73821;BME280;62150;43.582;1.456;2022-12-01T19:38:55;100415.84;;;5.95;100.00
73821;BME280;62150;43.582;1.456;2022-12-01T19:41:22;100409.09;;;5.91;100.00
73821;BME280;62150;43.582;1.456;2022-12-01T19:43:52;100419.44;;;5.82;100.00
73821;BME280;62150;43.582;1.456;2022-12-01T19:46:22;100420.28;;;5.83;100.00
73821;BME280;62150;43.582;1.456;2022-12-01T19:48:53;100421.72;;;6.00;100.00
73821;BME280;62150;43.582;1.456;2022-12-01T19:51:24;100421.94;;;5.85;100.00
73821;BME280;62150;43.582;1.456;2022-12-01T19:53:53;100420.31;;;5.80;100.00
73821;BME280;62150;43.582;1.456;2022-12-01T19:56:21;100425.22;;;5.95;100.00
73821;BME280;62150;43.582;1.456;2022-12-01T19:58:51;100419.22;;;5.97;100.00
73821;BME280;62150;43.582;1.456;2022-12-01T20:01:19;100427.22;;;5.73;100.00
73821;BME280;62150;43.582;1.456;2022-12-01T20:03:48;100426.28;;;5.79;100.00
73821;BME280;62150;43.582;1.456;2022-12-01T20:06:17;100426.91;;;5.94;100.00